Saturday, November 18, 2017, 6:55 AM EST
Back to Local

KBFD, Bradford Regional Airport

Location: Cyclone, PA, United States Lat: 41.8
Local Time: 6:55 AM EST (11:55 GMT) Lon: -78.633
Time Zone: US/Eastern Elev: 2142 ft

Show me the last for .
Show Coded

Time T Td Feel RH Dir Speed Gust Alt SLP Vis Weather Sky Remarks
2017-11-18 05:53 40 23 36 50 Variable 6 - 29.71 29.75 10 FEW060 BKN090 OVC100 None
2017-11-18 04:53 39 23 33 52 160° 8 - 29.74 29.77 10 BKN085 OVC110 None
2017-11-18 03:53 37 24 30 59 140° 9 - 29.76 29.79 10 CLR None
2017-11-18 02:53 36 24 28 61 150° 10 - 29.80 29.84 10 CLR None
2017-11-18 01:53 34 24 27 66 140° 8 - 29.82 29.86 10 CLR None
2017-11-18 00:53 31 24 24 75 140° 7 - 29.85 29.90 10 CLR 6-hr Min Temp (1am): 30.0°F
6-hr Max Temp (1am): 33.1°F
2017-11-17 23:53 30 25 23 81 140° 7 - 29.90 29.95 10 CLR 24-hr Min Temp (12am): 27.0°F
24-hr Max Temp (12am): 37.0°F
2017-11-17 22:53 32 26 26 78 150° 6 - 29.94 29.99 10 CLR None
2017-11-17 21:53 33 27 29 77 160° 5 - 29.96 30.01 10 CLR None
2017-11-17 20:53 33 27 28 77 Variable 6 - 29.99 30.05 10 FEW120 None
2017-11-17 19:53 31 26 26 81 140° 5 - 30.02 30.09 10 BKN110 None
2017-11-17 18:53 32 26 - 78 - Calm - 30.03 30.09 10 CLR 6-hr Min Temp (7pm): 30.9°F
6-hr Max Temp (7pm): 37.0°F
2017-11-17 17:53 33 26 28 75 140° 6 - 30.03 30.08 10 SCT100 None
2017-11-17 16:53 35 25 - 66 - Calm - 30.06 30.11 10 BKN110 None
2017-11-17 15:53 37 26 - 64 - Calm - 30.09 30.14 10 CLR None
2017-11-17 14:53 37 26 34 64 Variable 3 - 30.09 30.14 10 CLR None
2017-11-17 13:53 37 27 32 66 250° 6 - 30.13 30.18 10 CLR None
2017-11-17 12:53 35 26 29 69 290° 7 - 30.15 30.20 10 CLR 6-hr Min Temp (1pm): 27.0°F
6-hr Max Temp (1pm): 35.1°F
2017-11-17 11:53 33 25 27 71 280° 7 - 30.16 30.21 10 SCT019 None
2017-11-17 10:53 31 24 25 75 270° 6 - 30.19 30.24 10 BKN018 None
2017-11-17 10:13 30 25 26 81 300° 3 - 30.18 - 10 BKN015 None
2017-11-17 10:00 31 25 23 78 340° 8 - 30.18 - 10 SCT015 None
2017-11-17 09:53 30 24 22 78 330° 8 - 30.18 30.24 10 BKN015 None
2017-11-17 09:26 30 24 22 78 330° 9 - 30.19 - 10 OVC014 None
2017-11-17 09:15 30 24 21 78 350° 10 - 30.19 - 10 BKN015 None
2017-11-17 08:53 29 24 19 81 310° 12 - 30.18 30.24 10 BKN013 None
2017-11-17 08:06 27 22 17 80 310° 10 - 30.16 - 10 BKN014 None
2017-11-17 07:53 27 22 17 80 330° 12 - 30.16 30.22 10 BKN015 None

Support USWX by starting your Amazon purchase here.